createdAt,value
2022-11-06T00:02:47.528Z,100345.13
2022-11-06T00:06:08.111Z,100337.91
2022-11-06T00:09:12.375Z,100343.94
2022-11-06T00:12:14.053Z,100346.31
2022-11-06T00:15:16.311Z,100353.56
2022-11-06T00:18:17.987Z,100341.94
2022-11-06T00:21:24.542Z,100348.34
2022-11-06T00:24:26.195Z,100350.34
2022-11-06T00:27:28.241Z,100356.84
2022-11-06T00:30:29.925Z,100364.31
2022-11-06T00:33:31.680Z,100358.87
2022-11-06T00:36:33.559Z,100359.81
2022-11-06T00:39:35.208Z,100353.72
2022-11-06T00:42:36.763Z,100360.16
2022-11-06T00:45:38.325Z,100358.94
2022-11-06T00:48:41.369Z,100364.25
2022-11-06T00:51:43.139Z,100366.34
2022-11-06T00:54:44.725Z,100362.44
2022-11-06T00:57:46.297Z,100367.66
2022-11-06T01:00:47.875Z,100372.13
2022-11-06T01:03:56.384Z,100376.72
2022-11-06T01:06:58.045Z,100372.00
2022-11-06T01:09:59.629Z,100370.84
2022-11-06T01:13:01.219Z,100371.84
2022-11-06T01:16:06.193Z,100370.56
2022-11-06T01:19:08.271Z,100367.06
2022-11-06T01:22:09.939Z,100359.66
2022-11-06T01:25:11.543Z,100372.03
2022-11-06T01:28:13.330Z,100362.25
2022-11-06T01:31:18.205Z,100373.13
2022-11-06T01:34:19.855Z,100374.84
2022-11-06T01:37:21.483Z,100376.34
2022-11-06T01:40:23.146Z,100370.06
2022-11-06T01:43:43.743Z,100370.84
2022-11-06T01:46:45.366Z,100363.06
2022-11-06T01:49:47.222Z,100355.75
2022-11-06T01:52:51.032Z,100356.34
2022-11-06T01:55:56.276Z,100359.66
2022-11-06T01:58:57.997Z,100359.44
2022-11-06T02:01:59.968Z,100366.44
2022-11-06T02:05:01.723Z,100355.44
2022-11-06T02:08:03.969Z,100353.84
2022-11-06T02:11:05.602Z,100361.22
2022-11-06T02:14:34.597Z,100362.25
2022-11-06T02:17:39.316Z,100369.22
2022-11-06T02:20:56.237Z,100376.97
2022-11-06T02:24:36.150Z,100374.91
2022-11-06T02:27:38.059Z,100378.22
2022-11-06T02:30:45.863Z,100376.69
2022-11-06T02:33:57.848Z,100373.84
2022-11-06T02:37:04.706Z,100388.63
2022-11-06T02:40:09.739Z,100393.06
2022-11-06T02:43:14.480Z,100392.06
2022-11-06T02:46:22.708Z,100390.63
2022-11-06T02:49:40.229Z,100392.31
2022-11-06T02:52:48.912Z,100397.25
2022-11-06T02:55:53.735Z,100397.25
2022-11-06T02:59:05.031Z,100404.06
2022-11-06T03:02:11.892Z,100410.22
2022-11-06T03:05:13.546Z,100405.66
2022-11-06T03:08:25.769Z,100410.09
2022-11-06T03:11:29.719Z,100408.62
2022-11-06T03:14:54.573Z,100403.34
2022-11-06T03:18:17.731Z,100409.06
2022-11-06T03:21:27.035Z,100414.75
2022-11-06T03:24:34.018Z,100418.66
2022-11-06T03:27:40.648Z,100414.72
2022-11-06T03:30:54.229Z,100423.16
2022-11-06T03:34:01.701Z,100427.56
2022-11-06T03:37:05.795Z,100435.38
2022-11-06T03:40:12.095Z,100432.72
2022-11-06T03:43:17.877Z,100435.31
2022-11-06T03:46:25.130Z,100431.25
2022-11-06T03:49:56.007Z,100441.94
2022-11-06T03:53:12.292Z,100439.94
2022-11-06T03:56:29.324Z,100436.84
2022-11-06T03:59:38.115Z,100448.25
2022-11-06T04:02:44.069Z,100446.75
2022-11-06T04:05:55.774Z,100452.53
2022-11-06T04:09:20.430Z,100451.13
2022-11-06T04:12:44.623Z,100451.13
2022-11-06T04:15:52.879Z,100445.72
2022-11-06T04:18:54.451Z,100454.44
2022-11-06T04:22:28.948Z,100450.13
2022-11-06T04:26:13.675Z,100442.94
2022-11-06T04:29:17.887Z,100441.41
2022-11-06T04:32:40.661Z,100440.47
2022-11-06T04:35:57.913Z,100442.91
2022-11-06T04:39:37.350Z,100438.81
2022-11-06T04:42:41.789Z,100438.16
2022-11-06T04:45:48.131Z,100442.78
2022-11-06T04:48:50.263Z,100455.31
2022-11-06T04:51:52.941Z,100451.06
2022-11-06T04:54:58.193Z,100458.53
2022-11-06T04:57:59.764Z,100460.53
2022-11-06T05:01:01.411Z,100460.25
2022-11-06T05:04:03.176Z,100460.69
2022-11-06T05:07:04.856Z,100466.34
2022-11-06T05:10:06.825Z,100464.59
2022-11-06T05:13:08.387Z,100469.91
2022-11-06T05:16:10.022Z,100466.94
2022-11-06T05:19:11.699Z,100467.63
2022-11-06T05:22:32.021Z,100472.97
2022-11-06T05:25:38.408Z,100482.97
2022-11-06T05:28:40.051Z,100478.28
2022-11-06T05:31:41.661Z,100493.44
2022-11-06T05:34:43.287Z,100491.66
2022-11-06T05:37:44.905Z,100488.22
2022-11-06T05:40:46.728Z,100494.00
2022-11-06T05:43:48.296Z,100494.22
2022-11-06T05:46:50.344Z,100496.53
2022-11-06T05:49:52.116Z,100498.63
2022-11-06T05:52:53.715Z,100500.91
2022-11-06T05:55:55.316Z,100514.28
2022-11-06T05:58:56.919Z,100513.53
2022-11-06T06:01:59.608Z,100512.66
2022-11-06T06:05:01.295Z,100522.28
2022-11-06T06:08:02.869Z,100525.69
2022-11-06T06:11:08.274Z,100524.06
2022-11-06T06:14:09.853Z,100530.84
2022-11-06T06:17:11.575Z,100533.22
2022-11-06T06:20:13.623Z,100540.91
2022-11-06T06:23:15.207Z,100550.06
2022-11-06T06:26:16.948Z,100550.53
2022-11-06T06:29:18.814Z,100557.59
2022-11-06T06:32:20.417Z,100556.41
2022-11-06T06:35:21.980Z,100563.16
2022-11-06T06:38:23.933Z,100562.25
2022-11-06T06:41:25.529Z,100567.41
2022-11-06T06:44:27.935Z,100572.31
2022-11-06T06:47:29.494Z,100578.78
2022-11-06T06:50:31.533Z,100578.53
2022-11-06T06:53:33.313Z,100583.16
2022-11-06T06:56:34.929Z,100589.25
2022-11-06T06:59:36.593Z,100592.47
2022-11-06T07:02:38.168Z,100592.31
2022-11-06T07:05:40.108Z,100592.91
2022-11-06T07:08:41.691Z,100598.06
2022-11-06T07:11:43.277Z,100596.41
2022-11-06T07:14:44.919Z,100601.69
2022-11-06T07:17:46.680Z,100598.47
2022-11-06T07:20:48.304Z,100595.88
2022-11-06T07:23:50.675Z,100603.22
2022-11-06T07:26:52.232Z,100595.03
2022-11-06T07:29:53.833Z,100591.78
2022-11-06T07:32:55.436Z,100593.63
2022-11-06T07:36:02.583Z,100594.62
2022-11-06T07:39:04.288Z,100589.53
2022-11-06T07:42:05.953Z,100591.25
2022-11-06T07:45:08.245Z,100593.84
2022-11-06T07:48:09.826Z,100597.56
2022-11-06T07:51:11.869Z,100591.84
2022-11-06T07:54:13.555Z,100592.72
2022-11-06T07:57:15.113Z,100590.38
2022-11-06T08:00:17.022Z,100588.31
2022-11-06T08:03:19.472Z,100599.47
2022-11-06T08:06:21.045Z,100608.12
2022-11-06T08:09:25.103Z,100601.06
2022-11-06T08:12:26.714Z,100606.94
2022-11-06T08:15:28.288Z,100605.12
2022-11-06T08:18:29.831Z,100613.34
2022-11-06T08:21:31.461Z,100621.09
2022-11-06T08:24:33.022Z,100620.34
2022-11-06T08:27:34.668Z,100618.44
2022-11-06T08:30:36.267Z,100619.25
2022-11-06T08:33:39.180Z,100614.13
2022-11-06T08:36:49.241Z,100620.00
2022-11-06T08:39:51.299Z,100625.12
2022-11-06T08:42:52.886Z,100632.28
2022-11-06T08:45:54.512Z,100633.84
2022-11-06T08:48:56.079Z,100644.72
2022-11-06T08:51:57.649Z,100647.84
2022-11-06T08:54:59.198Z,100646.53
2022-11-06T08:58:01.195Z,100643.53
2022-11-06T09:01:02.831Z,100649.50
2022-11-06T09:04:05.961Z,100639.94
2022-11-06T09:07:08.274Z,100651.09
2022-11-06T09:10:09.970Z,100652.06
2022-11-06T09:13:12.365Z,100651.69
2022-11-06T09:16:16.128Z,100646.03
2022-11-06T09:19:17.906Z,100660.53
2022-11-06T09:22:19.870Z,100663.06
2022-11-06T09:25:22.001Z,100665.06
2022-11-06T09:28:23.811Z,100666.56
2022-11-06T09:31:25.585Z,100667.66
2022-11-06T09:34:27.275Z,100661.41
2022-11-06T09:37:28.851Z,100661.63
2022-11-06T09:40:35.301Z,100654.16
2022-11-06T09:44:14.273Z,100651.03
2022-11-06T09:47:28.191Z,100655.97
2022-11-06T09:50:35.247Z,100648.41
2022-11-06T09:53:41.484Z,100652.34
2022-11-06T09:56:46.182Z,100648.00
2022-11-06T09:59:50.164Z,100647.84
2022-11-06T10:02:55.893Z,100636.03
2022-11-06T10:05:57.634Z,100639.88
2022-11-06T10:09:06.038Z,100639.00
2022-11-06T10:12:20.719Z,100626.09
2022-11-06T10:15:38.972Z,100626.66
2022-11-06T10:19:11.932Z,100633.59
2022-11-06T10:22:20.945Z,100631.25
2022-11-06T10:25:39.521Z,100630.47
2022-11-06T10:29:05.542Z,100626.06
2022-11-06T10:32:35.402Z,100627.78
2022-11-06T10:35:45.258Z,100625.72
2022-11-06T10:38:49.167Z,100609.59
2022-11-06T10:41:57.097Z,100598.59
2022-11-06T10:45:02.565Z,100602.41
2022-11-06T10:48:31.730Z,100596.16
2022-11-06T10:51:45.118Z,100596.06
2022-11-06T10:54:58.919Z,100585.47
2022-11-06T10:58:14.289Z,100579.22
2022-11-06T11:01:16.241Z,100578.06
2022-11-06T11:04:18.034Z,100575.25
2022-11-06T11:07:21.797Z,100575.13
2022-11-06T11:10:23.498Z,100562.09
2022-11-06T11:13:25.053Z,100566.75
2022-11-06T11:16:34.455Z,100571.69
2022-11-06T11:19:41.937Z,100559.84
2022-11-06T11:22:43.845Z,100557.19
2022-11-06T11:25:51.309Z,100553.09
2022-11-06T11:28:59.196Z,100551.25
2022-11-06T11:32:07.122Z,100543.59
2022-11-06T11:35:11.399Z,100546.50
2022-11-06T11:38:19.253Z,100539.66
2022-11-06T11:41:21.145Z,100536.13
2022-11-06T11:44:23.885Z,100541.22
2022-11-06T11:47:25.688Z,100547.69
2022-11-06T11:50:32.006Z,100545.63
2022-11-06T11:53:35.187Z,100542.91
2022-11-06T11:57:03.418Z,100549.22
2022-11-06T12:00:16.624Z,100554.66
2022-11-06T12:03:21.747Z,100545.41
2022-11-06T12:06:23.625Z,100558.56
2022-11-06T12:09:26.742Z,100560.28
2022-11-06T12:12:33.939Z,100561.97
2022-11-06T12:15:50.155Z,100560.28
2022-11-06T12:18:58.892Z,100556.19
2022-11-06T12:22:06.792Z,100551.78
2022-11-06T12:25:40.181Z,100560.31
2022-11-06T12:28:44.144Z,100558.78
2022-11-06T12:31:55.315Z,100558.16
2022-11-06T12:35:01.429Z,100559.69
2022-11-06T12:38:35.108Z,100559.25
2022-11-06T12:41:41.838Z,100559.41
2022-11-06T12:44:47.887Z,100559.78
2022-11-06T12:47:59.288Z,100564.91
2022-11-06T12:51:03.988Z,100559.44
2022-11-06T12:54:32.104Z,100568.41
2022-11-06T12:57:45.782Z,100556.09
2022-11-06T13:00:58.683Z,100554.09
2022-11-06T13:04:25.838Z,100554.12
2022-11-06T13:07:36.946Z,100553.72
2022-11-06T13:10:45.173Z,100561.66
2022-11-06T13:14:22.485Z,100555.41
2022-11-06T13:18:04.190Z,100552.25
2022-11-06T13:21:30.315Z,100551.28
2022-11-06T13:24:35.849Z,100556.34
2022-11-06T13:27:45.094Z,100563.47
2022-11-06T13:30:48.564Z,100567.19
2022-11-06T13:33:59.897Z,100573.41
2022-11-06T13:37:02.292Z,100564.78
2022-11-06T13:40:33.374Z,100569.09
2022-11-06T13:43:44.720Z,100570.06
2022-11-06T13:46:50.822Z,100566.13
2022-11-06T13:50:01.956Z,100572.41
2022-11-06T13:53:31.313Z,100565.91
2022-11-06T13:56:54.589Z,100572.78
2022-11-06T14:00:15.037Z,100563.25
2022-11-06T14:03:36.179Z,100561.28
2022-11-06T14:06:40.160Z,100563.59
2022-11-06T14:09:45.885Z,100569.78
2022-11-06T14:12:50.147Z,100569.69
2022-11-06T14:16:04.332Z,100570.38
2022-11-06T14:19:21.031Z,100571.06
2022-11-06T14:22:30.438Z,100568.16
2022-11-06T14:25:40.026Z,100568.28
2022-11-06T14:28:46.682Z,100566.66
2022-11-06T14:32:04.249Z,100566.81
2022-11-06T14:35:34.460Z,100570.53
2022-11-06T14:38:37.342Z,100567.59
2022-11-06T14:41:55.266Z,100570.41
2022-11-06T14:45:00.596Z,100566.78
2022-11-06T14:48:02.595Z,100573.41
2022-11-06T14:51:08.070Z,100567.16
2022-11-06T14:54:24.877Z,100563.50
2022-11-06T14:57:35.815Z,100558.03
2022-11-06T15:00:40.556Z,100561.12
2022-11-06T15:03:55.337Z,100556.66
2022-11-06T15:07:06.416Z,100560.97
2022-11-06T15:10:41.567Z,100558.19
2022-11-06T15:13:43.185Z,100556.06
2022-11-06T15:16:54.552Z,100556.00
2022-11-06T15:20:05.599Z,100562.59
2022-11-06T15:23:14.004Z,100563.56
2022-11-06T15:26:21.664Z,100557.75
2022-11-06T15:29:26.257Z,100561.72
2022-11-06T15:32:30.346Z,100571.84
2022-11-06T15:35:35.268Z,100562.34
2022-11-06T15:38:51.887Z,100563.94
2022-11-06T15:41:53.631Z,100568.56
2022-11-06T15:45:07.609Z,100574.09
2022-11-06T15:48:23.016Z,100580.28
2022-11-06T15:51:31.442Z,100580.22
2022-11-06T15:54:38.008Z,100578.44
2022-11-06T15:57:40.522Z,100577.53
2022-11-06T16:00:43.083Z,100578.12
2022-11-06T16:03:49.572Z,100587.66
2022-11-06T16:06:53.159Z,100596.03
2022-11-06T16:09:55.236Z,100599.13
2022-11-06T16:13:00.358Z,100601.72
2022-11-06T16:16:02.444Z,100594.38
2022-11-06T16:19:24.893Z,100594.22
2022-11-06T16:22:29.658Z,100604.16
2022-11-06T16:25:31.590Z,100603.22
2022-11-06T16:28:34.747Z,100607.13
2022-11-06T16:31:40.155Z,100612.72
2022-11-06T16:34:46.980Z,100610.78
2022-11-06T16:37:48.763Z,100620.97
2022-11-06T16:40:52.320Z,100622.69
2022-11-06T16:44:12.981Z,100619.31
2022-11-06T16:47:19.463Z,100618.78
2022-11-06T16:50:40.312Z,100625.38
2022-11-06T16:53:48.471Z,100617.53
2022-11-06T16:56:52.481Z,100621.25
2022-11-06T16:59:59.644Z,100629.72
2022-11-06T17:03:03.943Z,100631.31
2022-11-06T17:06:06.726Z,100625.72
2022-11-06T17:09:23.985Z,100622.97
2022-11-06T17:12:26.468Z,100628.50
2022-11-06T17:15:29.696Z,100630.56
2022-11-06T17:18:33.651Z,100622.59
2022-11-06T17:21:36.139Z,100617.31
2022-11-06T17:24:38.474Z,100623.84
2022-11-06T17:27:41.780Z,100632.41
2022-11-06T17:30:44.392Z,100635.03
2022-11-06T17:33:47.254Z,100646.56
2022-11-06T17:36:49.358Z,100645.53
2022-11-06T17:39:51.489Z,100647.34
2022-11-06T17:42:53.533Z,100645.81
2022-11-06T17:45:56.071Z,100641.06
2022-11-06T17:48:58.290Z,100644.50
2022-11-06T17:52:01.638Z,100644.34
2022-11-06T17:55:03.531Z,100646.81
2022-11-06T17:58:05.815Z,100643.22
2022-11-06T18:01:09.187Z,100636.03
2022-11-06T18:04:11.800Z,100632.25
2022-11-06T18:07:13.887Z,100634.22
2022-11-06T18:10:16.041Z,100641.34
2022-11-06T18:13:19.182Z,100643.38
2022-11-06T18:16:22.831Z,100651.44
2022-11-06T18:19:26.069Z,100651.75
2022-11-06T18:22:27.887Z,100658.09
2022-11-06T18:25:30.170Z,100650.63
2022-11-06T18:28:32.658Z,100648.94
2022-11-06T18:31:36.323Z,100648.59
2022-11-06T18:34:38.797Z,100651.84
2022-11-06T18:37:41.008Z,100653.47
2022-11-06T18:40:48.920Z,100650.72
2022-11-06T18:43:59.071Z,100655.69
2022-11-06T18:47:01.326Z,100659.88
2022-11-06T18:50:03.860Z,100661.38
2022-11-06T18:53:06.317Z,100651.19
2022-11-06T18:56:14.652Z,100651.34
2022-11-06T18:59:19.500Z,100647.72
2022-11-06T19:02:22.254Z,100651.28
2022-11-06T19:05:24.669Z,100646.22
2022-11-06T19:08:27.458Z,100661.59
2022-11-06T19:11:29.869Z,100662.25
2022-11-06T19:14:33.426Z,100665.22
2022-11-06T19:17:36.033Z,100667.56
2022-11-06T19:20:40.251Z,100673.03
2022-11-06T19:23:43.952Z,100673.28
2022-11-06T19:26:50.768Z,100670.38
2022-11-06T19:29:52.730Z,100680.47
2022-11-06T19:32:54.430Z,100679.91
2022-11-06T19:35:59.433Z,100678.66
2022-11-06T19:39:01.762Z,100679.91
2022-11-06T19:42:07.006Z,100672.22
2022-11-06T19:45:10.700Z,100676.09
2022-11-06T19:48:14.163Z,100680.72
2022-11-06T19:51:20.670Z,100667.81
2022-11-06T19:54:22.866Z,100663.22
2022-11-06T19:57:29.393Z,100670.66
2022-11-06T20:00:32.409Z,100674.00
2022-11-06T20:03:36.599Z,100682.25
2022-11-06T20:06:39.874Z,100676.12
2022-11-06T20:09:41.990Z,100679.16
2022-11-06T20:12:47.904Z,100683.31
2022-11-06T20:15:50.402Z,100683.97
2022-11-06T20:18:53.394Z,100680.53
2022-11-06T20:21:56.787Z,100689.50
2022-11-06T20:24:59.584Z,100693.56
2022-11-06T20:28:01.657Z,100695.41
2022-11-06T20:31:10.902Z,100697.75
2022-11-06T20:34:13.059Z,100690.78
2022-11-06T20:37:15.214Z,100691.56
2022-11-06T20:40:17.549Z,100694.41
2022-11-06T20:43:19.246Z,100701.69
2022-11-06T20:46:27.043Z,100703.47
2022-11-06T20:49:29.698Z,100699.19
2022-11-06T20:52:32.444Z,100700.50
2022-11-06T20:55:35.062Z,100696.91
2022-11-06T20:58:37.309Z,100697.66
2022-11-06T21:01:40.168Z,100693.34
2022-11-06T21:04:42.686Z,100690.22
2022-11-06T21:07:45.210Z,100692.69
2022-11-06T21:10:54.187Z,100685.25
2022-11-06T21:13:56.217Z,100684.09
2022-11-06T21:16:58.098Z,100689.62
2022-11-06T21:20:00.203Z,100687.13
2022-11-06T21:23:02.356Z,100689.06
2022-11-06T21:26:24.314Z,100678.34
2022-11-06T21:29:29.160Z,100689.19
2022-11-06T21:32:30.894Z,100702.53
2022-11-06T21:35:32.520Z,100692.72
2022-11-06T21:38:34.388Z,100690.91
2022-11-06T21:41:36.533Z,100703.22
2022-11-06T21:44:38.803Z,100706.31
2022-11-06T21:47:40.631Z,100710.06
2022-11-06T21:50:42.171Z,100709.56
2022-11-06T21:54:02.226Z,100705.69
2022-11-06T21:57:04.265Z,100711.78
2022-11-06T22:00:06.201Z,100718.25
2022-11-06T22:03:07.698Z,100714.44
2022-11-06T22:06:10.206Z,100715.44
2022-11-06T22:09:12.319Z,100722.00
2022-11-06T22:12:13.788Z,100726.28
2022-11-06T22:15:15.430Z,100723.16
2022-11-06T22:18:16.911Z,100724.47
2022-11-06T22:21:19.828Z,100713.97
2022-11-06T22:24:21.289Z,100722.63
2022-11-06T22:27:22.754Z,100724.59
2022-11-06T22:30:24.193Z,100724.59
2022-11-06T22:33:25.843Z,100722.69
2022-11-06T22:36:27.405Z,100728.37
2022-11-06T22:39:28.910Z,100726.97
2022-11-06T22:42:30.385Z,100726.31
2022-11-06T22:45:32.122Z,100723.28
2022-11-06T22:48:34.229Z,100734.56
2022-11-06T22:51:35.860Z,100734.25
2022-11-06T22:54:37.376Z,100735.06
2022-11-06T22:57:38.829Z,100739.22
2022-11-06T23:00:40.299Z,100737.38
2022-11-06T23:03:41.767Z,100729.97
2022-11-06T23:06:44.261Z,100730.66
2022-11-06T23:09:45.785Z,100733.72
2022-11-06T23:12:47.241Z,100738.97
2022-11-06T23:15:49.084Z,100733.91
2022-11-06T23:18:51.017Z,100734.12
2022-11-06T23:22:12.581Z,100729.22
2022-11-06T23:25:14.522Z,100726.00
2022-11-06T23:28:16.015Z,100736.06
2022-11-06T23:31:17.490Z,100730.06
2022-11-06T23:34:18.962Z,100738.94
2022-11-06T23:37:20.852Z,100737.41
2022-11-06T23:40:22.321Z,100744.72
2022-11-06T23:43:23.797Z,100745.22
2022-11-06T23:46:26.647Z,100742.69
2022-11-06T23:49:28.420Z,100735.34
2022-11-06T23:52:29.921Z,100727.81
2022-11-06T23:55:31.418Z,100731.53
2022-11-06T23:58:32.845Z,100740.59
